sensor_id;sensor_type;location;lat;lon;timestamp;pressure;altitude;pressure_sealevel;temperature;humidity
61408;BME280;47274;43.054;25.146;2023-03-11T00:02:17;93722.63;;;10.88;77.77
61408;BME280;47274;43.054;25.146;2023-03-11T00:04:43;93713.09;;;10.76;78.69
61408;BME280;47274;43.054;25.146;2023-03-11T00:07:10;93672.34;;;10.53;79.49
61408;BME280;47274;43.054;25.146;2023-03-11T00:09:36;93693.16;;;10.78;79.21
61408;BME280;47274;43.054;25.146;2023-03-11T00:12:03;93688.81;;;10.78;78.74
61408;BME280;47274;43.054;25.146;2023-03-11T00:14:32;93667.66;;;10.70;77.67
61408;BME280;47274;43.054;25.146;2023-03-11T00:16:58;93671.88;;;10.84;77.24
61408;BME280;47274;43.054;25.146;2023-03-11T00:19:24;93679.81;;;11.02;76.71
61408;BME280;47274;43.054;25.146;2023-03-11T00:21:49;93681.00;;;11.06;76.09
61408;BME280;47274;43.054;25.146;2023-03-11T00:24:15;93675.06;;;10.99;76.79
61408;BME280;47274;43.054;25.146;2023-03-11T00:26:41;93678.59;;;10.91;77.63
61408;BME280;47274;43.054;25.146;2023-03-11T00:29:07;93654.84;;;10.70;78.15
61408;BME280;47274;43.054;25.146;2023-03-11T00:31:33;93642.16;;;10.55;78.59
61408;BME280;47274;43.054;25.146;2023-03-11T00:33:58;93682.88;;;10.71;78.78
61408;BME280;47274;43.054;25.146;2023-03-11T00:36:28;93655.19;;;10.53;79.49
61408;BME280;47274;43.054;25.146;2023-03-11T00:39:04;93676.13;;;10.57;80.28
61408;BME280;47274;43.054;25.146;2023-03-11T00:41:32;93667.94;;;10.33;79.95
61408;BME280;47274;43.054;25.146;2023-03-11T00:43:58;93670.16;;;10.43;80.76
61408;BME280;47274;43.054;25.146;2023-03-11T00:46:25;93672.88;;;10.41;80.78
61408;BME280;47274;43.054;25.146;2023-03-11T00:48:51;93668.72;;;10.34;81.42
61408;BME280;47274;43.054;25.146;2023-03-11T00:51:18;93669.47;;;10.28;81.39
61408;BME280;47274;43.054;25.146;2023-03-11T00:53:44;93667.91;;;10.27;81.76
61408;BME280;47274;43.054;25.146;2023-03-11T00:56:12;93664.34;;;10.28;82.04
61408;BME280;47274;43.054;25.146;2023-03-11T00:58:40;93666.91;;;10.28;82.55
61408;BME280;47274;43.054;25.146;2023-03-11T01:01:09;93649.06;;;10.13;81.79
61408;BME280;47274;43.054;25.146;2023-03-11T01:03:35;93665.41;;;10.12;82.13
61408;BME280;47274;43.054;25.146;2023-03-11T01:06:02;93657.47;;;10.00;82.59
61408;BME280;47274;43.054;25.146;2023-03-11T01:08:28;93640.44;;;9.86;82.46
61408;BME280;47274;43.054;25.146;2023-03-11T01:10:56;93649.31;;;9.90;82.56
61408;BME280;47274;43.054;25.146;2023-03-11T01:13:23;93646.97;;;9.88;82.74
61408;BME280;47274;43.054;25.146;2023-03-11T01:15:49;93643.41;;;9.89;82.26
61408;BME280;47274;43.054;25.146;2023-03-11T01:18:18;93638.63;;;9.80;82.62
61408;BME280;47274;43.054;25.146;2023-03-11T01:20:45;93622.22;;;9.74;83.50
61408;BME280;47274;43.054;25.146;2023-03-11T01:23:12;93623.41;;;9.71;83.51
61408;BME280;47274;43.054;25.146;2023-03-11T01:25:39;93630.09;;;9.72;83.59
61408;BME280;47274;43.054;25.146;2023-03-11T01:28:06;93627.91;;;9.69;83.46
61408;BME280;47274;43.054;25.146;2023-03-11T01:30:38;93619.19;;;9.64;84.30
61408;BME280;47274;43.054;25.146;2023-03-11T01:33:05;93606.38;;;9.64;85.21
61408;BME280;47274;43.054;25.146;2023-03-11T01:35:32;93609.69;;;9.86;85.65
61408;BME280;47274;43.054;25.146;2023-03-11T01:37:58;93608.22;;;10.11;84.48
61408;BME280;47274;43.054;25.146;2023-03-11T01:40:31;93568.81;;;10.12;85.14
61408;BME280;47274;43.054;25.146;2023-03-11T01:43:03;93585.88;;;10.27;85.40
61408;BME280;47274;43.054;25.146;2023-03-11T01:46:04;93550.06;;;10.05;84.53
61408;BME280;47274;43.054;25.146;2023-03-11T01:48:28;93582.91;;;10.30;83.21
61408;BME280;47274;43.054;25.146;2023-03-11T01:50:55;93565.56;;;10.32;83.01
61408;BME280;47274;43.054;25.146;2023-03-11T01:53:23;93560.03;;;10.35;82.00
61408;BME280;47274;43.054;25.146;2023-03-11T01:55:49;93523.69;;;10.25;81.72
61408;BME280;47274;43.054;25.146;2023-03-11T01:58:23;93530.03;;;10.29;81.81
61408;BME280;47274;43.054;25.146;2023-03-11T02:00:50;93550.44;;;10.50;81.05
61408;BME280;47274;43.054;25.146;2023-03-11T02:03:20;93559.50;;;10.53;80.85
61408;BME280;47274;43.054;25.146;2023-03-11T02:05:50;93557.72;;;10.47;80.68
61408;BME280;47274;43.054;25.146;2023-03-11T02:08:17;93555.94;;;10.47;80.68
61408;BME280;47274;43.054;25.146;2023-03-11T02:10:43;93555.59;;;10.57;79.99
61408;BME280;47274;43.054;25.146;2023-03-11T02:13:10;93553.59;;;10.59;79.90
61408;BME280;47274;43.054;25.146;2023-03-11T02:15:37;93554.00;;;10.62;79.82
61408;BME280;47274;43.054;25.146;2023-03-11T02:18:05;93553.59;;;10.65;79.12
61408;BME280;47274;43.054;25.146;2023-03-11T02:20:46;93559.56;;;10.79;79.19
61408;BME280;47274;43.054;25.146;2023-03-11T02:23:16;93533.31;;;10.64;79.53
61408;BME280;47274;43.054;25.146;2023-03-11T02:28:20;93557.56;;;10.68;81.60
61408;BME280;47274;43.054;25.146;2023-03-11T02:30:47;93550.47;;;10.63;82.26
61408;BME280;47274;43.054;25.146;2023-03-11T02:33:14;93553.59;;;10.65;82.46
61408;BME280;47274;43.054;25.146;2023-03-11T02:35:44;93552.63;;;10.66;82.34
61408;BME280;47274;43.054;25.146;2023-03-11T02:38:13;93562.09;;;10.66;81.87
61408;BME280;47274;43.054;25.146;2023-03-11T02:40:47;93564.66;;;10.73;81.31
61408;BME280;47274;43.054;25.146;2023-03-11T02:43:21;93562.50;;;10.76;80.91
61408;BME280;47274;43.054;25.146;2023-03-11T02:45:49;93567.06;;;10.81;80.45
61408;BME280;47274;43.054;25.146;2023-03-11T02:48:16;93557.78;;;10.80;80.42
61408;BME280;47274;43.054;25.146;2023-03-11T02:50:45;93566.28;;;10.74;80.29
61408;BME280;47274;43.054;25.146;2023-03-11T02:53:13;93568.84;;;10.74;80.69
61408;BME280;47274;43.054;25.146;2023-03-11T02:55:40;93538.78;;;10.48;81.81
61408;BME280;47274;43.054;25.146;2023-03-11T02:58:06;93568.41;;;10.57;82.39
61408;BME280;47274;43.054;25.146;2023-03-11T03:00:32;93562.06;;;10.46;82.90
61408;BME280;47274;43.054;25.146;2023-03-11T03:03:03;93550.41;;;10.37;83.59
61408;BME280;47274;43.054;25.146;2023-03-11T03:05:29;93554.91;;;10.35;83.33
61408;BME280;47274;43.054;25.146;2023-03-11T03:07:56;93549.38;;;10.31;83.42
61408;BME280;47274;43.054;25.146;2023-03-11T03:10:23;93568.06;;;10.25;84.26
61408;BME280;47274;43.054;25.146;2023-03-11T03:12:50;93567.59;;;10.08;85.91
61408;BME280;47274;43.054;25.146;2023-03-11T03:15:16;93561.59;;;9.88;86.86
61408;BME280;47274;43.054;25.146;2023-03-11T03:17:43;93581.69;;;9.84;88.61
61408;BME280;47274;43.054;25.146;2023-03-11T03:20:09;93548.84;;;9.60;89.88
61408;BME280;47274;43.054;25.146;2023-03-11T03:22:38;93583.38;;;9.70;90.05
61408;BME280;47274;43.054;25.146;2023-03-11T03:25:06;93566.19;;;9.58;90.58
61408;BME280;47274;43.054;25.146;2023-03-11T03:27:33;93577.44;;;9.63;90.68
61408;BME280;47274;43.054;25.146;2023-03-11T03:29:59;93566.59;;;9.61;92.06
61408;BME280;47274;43.054;25.146;2023-03-11T03:32:25;93580.38;;;9.60;92.22
61408;BME280;47274;43.054;25.146;2023-03-11T03:34:51;93584.69;;;9.60;93.38
61408;BME280;47274;43.054;25.146;2023-03-11T03:37:25;93556.81;;;9.43;93.60
61408;BME280;47274;43.054;25.146;2023-03-11T03:39:53;93558.44;;;9.44;93.95
61408;BME280;47274;43.054;25.146;2023-03-11T03:42:20;93557.28;;;9.54;93.07
61408;BME280;47274;43.054;25.146;2023-03-11T03:44:45;93554.72;;;9.54;94.66
61408;BME280;47274;43.054;25.146;2023-03-11T03:47:12;93551.53;;;9.45;94.75
61408;BME280;47274;43.054;25.146;2023-03-11T03:49:39;93568.34;;;9.54;95.31
61408;BME280;47274;43.054;25.146;2023-03-11T03:52:06;93538.50;;;9.40;95.60
61408;BME280;47274;43.054;25.146;2023-03-11T03:54:33;93540.84;;;9.35;95.27
61408;BME280;47274;43.054;25.146;2023-03-11T03:57:00;93569.91;;;9.55;96.99
61408;BME280;47274;43.054;25.146;2023-03-11T03:59:30;93571.44;;;9.49;96.88
61408;BME280;47274;43.054;25.146;2023-03-11T04:01:58;93577.38;;;9.57;95.88
61408;BME280;47274;43.054;25.146;2023-03-11T04:04:27;93572.09;;;9.58;97.94
61408;BME280;47274;43.054;25.146;2023-03-11T04:06:53;93576.44;;;9.58;96.77
61408;BME280;47274;43.054;25.146;2023-03-11T04:09:19;93579.78;;;9.58;97.68
61408;BME280;47274;43.054;25.146;2023-03-11T04:11:45;93583.50;;;9.56;98.07
61408;BME280;47274;43.054;25.146;2023-03-11T04:14:13;93575.00;;;9.48;99.62
61408;BME280;47274;43.054;25.146;2023-03-11T04:16:44;93573.41;;;9.47;100.00
61408;BME280;47274;43.054;25.146;2023-03-11T04:19:12;93559.16;;;9.38;99.58
61408;BME280;47274;43.054;25.146;2023-03-11T04:21:38;93569.88;;;9.48;99.52
61408;BME280;47274;43.054;25.146;2023-03-11T04:24:05;93572.84;;;9.52;99.53
61408;BME280;47274;43.054;25.146;2023-03-11T04:26:34;93582.09;;;9.53;99.55
61408;BME280;47274;43.054;25.146;2023-03-11T04:29:02;93591.97;;;9.56;100.00
61408;BME280;47274;43.054;25.146;2023-03-11T04:31:32;93590.78;;;9.52;100.00
61408;BME280;47274;43.054;25.146;2023-03-11T04:34:02;93588.81;;;9.54;100.00
61408;BME280;47274;43.054;25.146;2023-03-11T04:36:28;93597.28;;;9.55;100.00
61408;BME280;47274;43.054;25.146;2023-03-11T04:38:55;93605.34;;;9.52;100.00
61408;BME280;47274;43.054;25.146;2023-03-11T04:41:23;93614.38;;;9.47;100.00
61408;BME280;47274;43.054;25.146;2023-03-11T04:43:49;93617.09;;;9.46;100.00
61408;BME280;47274;43.054;25.146;2023-03-11T04:46:18;93627.34;;;9.46;100.00
61408;BME280;47274;43.054;25.146;2023-03-11T04:48:44;93630.91;;;9.45;100.00
61408;BME280;47274;43.054;25.146;2023-03-11T04:51:11;93626.16;;;9.42;100.00
61408;BME280;47274;43.054;25.146;2023-03-11T04:53:37;93628.69;;;9.42;100.00
61408;BME280;47274;43.054;25.146;2023-03-11T04:56:03;93637.78;;;9.44;100.00
61408;BME280;47274;43.054;25.146;2023-03-11T04:58:30;93637.38;;;9.41;100.00
61408;BME280;47274;43.054;25.146;2023-03-11T05:00:56;93634.44;;;9.44;100.00
61408;BME280;47274;43.054;25.146;2023-03-11T05:03:23;93626.94;;;9.42;100.00
61408;BME280;47274;43.054;25.146;2023-03-11T05:05:49;93613.84;;;9.31;100.00
61408;BME280;47274;43.054;25.146;2023-03-11T05:08:19;93614.88;;;9.36;100.00
61408;BME280;47274;43.054;25.146;2023-03-11T05:10:45;93616.41;;;9.31;100.00
61408;BME280;47274;43.054;25.146;2023-03-11T05:13:11;93606.53;;;9.28;100.00
61408;BME280;47274;43.054;25.146;2023-03-11T05:15:39;93624.00;;;9.45;100.00
61408;BME280;47274;43.054;25.146;2023-03-11T05:18:06;93610.78;;;9.42;100.00
61408;BME280;47274;43.054;25.146;2023-03-11T05:20:33;93615.94;;;9.48;100.00
61408;BME280;47274;43.054;25.146;2023-03-11T05:23:00;93622.69;;;9.56;100.00
61408;BME280;47274;43.054;25.146;2023-03-11T05:25:29;93618.78;;;9.60;100.00
61408;BME280;47274;43.054;25.146;2023-03-11T05:27:55;93621.34;;;9.60;100.00
61408;BME280;47274;43.054;25.146;2023-03-11T05:30:22;93624.31;;;9.64;100.00
61408;BME280;47274;43.054;25.146;2023-03-11T05:32:48;93626.94;;;9.70;100.00
61408;BME280;47274;43.054;25.146;2023-03-11T05:35:14;93622.09;;;9.82;98.00
61408;BME280;47274;43.054;25.146;2023-03-11T05:37:40;93625.47;;;9.89;100.00
61408;BME280;47274;43.054;25.146;2023-03-11T05:40:10;93632.13;;;9.84;95.87
61408;BME280;47274;43.054;25.146;2023-03-11T05:42:37;93601.34;;;9.77;92.26
61408;BME280;47274;43.054;25.146;2023-03-11T05:45:07;93619.38;;;9.90;90.74
61408;BME280;47274;43.054;25.146;2023-03-11T05:47:35;93638.31;;;9.96;87.01
61408;BME280;47274;43.054;25.146;2023-03-11T05:50:03;93643.06;;;9.99;87.03
61408;BME280;47274;43.054;25.146;2023-03-11T05:52:29;93639.31;;;9.95;85.97
61408;BME280;47274;43.054;25.146;2023-03-11T05:54:58;93619.31;;;9.84;87.75
61408;BME280;47274;43.054;25.146;2023-03-11T05:57:26;93644.25;;;9.96;87.35
61408;BME280;47274;43.054;25.146;2023-03-11T05:59:53;93633.94;;;9.90;86.91
61408;BME280;47274;43.054;25.146;2023-03-11T06:02:20;93635.28;;;10.20;87.05
61408;BME280;47274;43.054;25.146;2023-03-11T06:04:46;93636.56;;;10.31;87.65
61408;BME280;47274;43.054;25.146;2023-03-11T06:07:13;93641.16;;;10.49;86.06
61408;BME280;47274;43.054;25.146;2023-03-11T06:09:41;93648.75;;;10.71;82.80
61408;BME280;47274;43.054;25.146;2023-03-11T06:12:12;93645.53;;;10.62;84.02
61408;BME280;47274;43.054;25.146;2023-03-11T06:14:52;93646.00;;;10.79;83.98
61408;BME280;47274;43.054;25.146;2023-03-11T06:17:18;93640.91;;;10.99;83.71
61408;BME280;47274;43.054;25.146;2023-03-11T06:19:44;93654.97;;;11.23;82.45
61408;BME280;47274;43.054;25.146;2023-03-11T06:22:10;93650.03;;;11.48;82.74
61408;BME280;47274;43.054;25.146;2023-03-11T06:24:36;93653.00;;;11.58;81.08
61408;BME280;47274;43.054;25.146;2023-03-11T06:27:03;93647.28;;;11.49;79.96
61408;BME280;47274;43.054;25.146;2023-03-11T06:29:29;93649.03;;;11.62;80.27
61408;BME280;47274;43.054;25.146;2023-03-11T06:31:55;93631.66;;;11.51;79.88
61408;BME280;47274;43.054;25.146;2023-03-11T06:34:21;93657.56;;;11.43;79.56
61408;BME280;47274;43.054;25.146;2023-03-11T06:36:50;93634.22;;;11.24;81.44
61408;BME280;47274;43.054;25.146;2023-03-11T06:39:16;93655.16;;;11.08;82.63
61408;BME280;47274;43.054;25.146;2023-03-11T06:41:44;93684.00;;;11.23;82.99
61408;BME280;47274;43.054;25.146;2023-03-11T06:44:12;93683.19;;;11.16;85.16
61408;BME280;47274;43.054;25.146;2023-03-11T06:46:38;93656.91;;;10.94;87.58
61408;BME280;47274;43.054;25.146;2023-03-11T06:49:07;93676.50;;;11.15;88.12
61408;BME280;47274;43.054;25.146;2023-03-11T06:51:34;93679.69;;;11.50;86.27
61408;BME280;47274;43.054;25.146;2023-03-11T06:54:01;93659.72;;;11.39;86.45
61408;BME280;47274;43.054;25.146;2023-03-11T06:56:27;93688.56;;;11.61;84.86
61408;BME280;47274;43.054;25.146;2023-03-11T06:58:58;93687.41;;;11.63;84.05
61408;BME280;47274;43.054;25.146;2023-03-11T07:01:29;93676.72;;;11.47;85.27
61408;BME280;47274;43.054;25.146;2023-03-11T07:03:56;93683.00;;;11.24;85.88
61408;BME280;47274;43.054;25.146;2023-03-11T07:06:25;93675.13;;;11.19;86.42
61408;BME280;47274;43.054;25.146;2023-03-11T07:08:56;93682.03;;;11.19;86.63
61408;BME280;47274;43.054;25.146;2023-03-11T07:11:25;93679.47;;;11.19;86.71
61408;BME280;47274;43.054;25.146;2023-03-11T07:13:56;93685.38;;;11.19;86.54
61408;BME280;47274;43.054;25.146;2023-03-11T07:16:25;93685.81;;;11.36;87.40
61408;BME280;47274;43.054;25.146;2023-03-11T07:18:58;93688.97;;;11.45;87.30
61408;BME280;47274;43.054;25.146;2023-03-11T07:21:29;93622.75;;;11.07;86.74
61408;BME280;47274;43.054;25.146;2023-03-11T07:24:00;93679.06;;;11.35;86.71
61408;BME280;47274;43.054;25.146;2023-03-11T07:26:28;93684.56;;;11.12;86.65
61408;BME280;47274;43.054;25.146;2023-03-11T07:28:55;93674.47;;;10.97;88.68
61408;BME280;47274;43.054;25.146;2023-03-11T07:31:28;93679.00;;;10.95;88.44
61408;BME280;47274;43.054;25.146;2023-03-11T07:34:01;93665.13;;;10.76;88.64
61408;BME280;47274;43.054;25.146;2023-03-11T07:36:28;93679.97;;;10.87;88.92
61408;BME280;47274;43.054;25.146;2023-03-11T07:39:03;93677.03;;;10.97;88.88
61408;BME280;47274;43.054;25.146;2023-03-11T07:41:33;93670.31;;;10.96;88.96
61408;BME280;47274;43.054;25.146;2023-03-11T07:44:00;93674.69;;;11.02;87.61
61408;BME280;47274;43.054;25.146;2023-03-11T07:46:28;93675.09;;;11.06;88.17
61408;BME280;47274;43.054;25.146;2023-03-11T07:48:55;93658.66;;;11.00;87.43
61408;BME280;47274;43.054;25.146;2023-03-11T07:51:27;93660.25;;;10.95;86.69
61408;BME280;47274;43.054;25.146;2023-03-11T07:53:55;93652.19;;;11.04;87.76
61408;BME280;47274;43.054;25.146;2023-03-11T07:56:23;93651.97;;;11.06;86.69
61408;BME280;47274;43.054;25.146;2023-03-11T07:58:51;93651.22;;;11.12;85.24
61408;BME280;47274;43.054;25.146;2023-03-11T08:01:20;93645.47;;;11.17;85.48
61408;BME280;47274;43.054;25.146;2023-03-11T08:03:49;93643.72;;;11.30;83.24
61408;BME280;47274;43.054;25.146;2023-03-11T08:06:22;93605.78;;;11.06;83.72
61408;BME280;47274;43.054;25.146;2023-03-11T08:08:48;93553.41;;;10.60;82.63
61408;BME280;47274;43.054;25.146;2023-03-11T08:11:26;93584.25;;;10.80;82.32
61408;BME280;47274;43.054;25.146;2023-03-11T08:14:04;93580.44;;;10.63;80.33
61408;BME280;47274;43.054;25.146;2023-03-11T08:16:39;93586.22;;;10.85;81.36
61408;BME280;47274;43.054;25.146;2023-03-11T08:19:11;93644.69;;;11.23;79.63
61408;BME280;47274;43.054;25.146;2023-03-11T08:21:45;93648.84;;;11.37;79.50
61408;BME280;47274;43.054;25.146;2023-03-11T08:24:14;93570.03;;;11.31;78.13
61408;BME280;47274;43.054;25.146;2023-03-11T08:26:43;93560.16;;;11.41;77.03
61408;BME280;47274;43.054;25.146;2023-03-11T08:29:11;93648.13;;;12.48;75.00
61408;BME280;47274;43.054;25.146;2023-03-11T08:31:37;93596.19;;;13.02;71.65
61408;BME280;47274;43.054;25.146;2023-03-11T08:34:08;93599.59;;;13.28;68.62
61408;BME280;47274;43.054;25.146;2023-03-11T08:36:42;93616.25;;;13.94;67.67
61408;BME280;47274;43.054;25.146;2023-03-11T08:39:11;93585.47;;;13.37;68.37
61408;BME280;47274;43.054;25.146;2023-03-11T08:41:47;93548.69;;;13.67;67.97
61408;BME280;47274;43.054;25.146;2023-03-11T08:44:13;93542.63;;;13.36;68.65
61408;BME280;47274;43.054;25.146;2023-03-11T08:46:44;93583.38;;;13.46;67.38
61408;BME280;47274;43.054;25.146;2023-03-11T08:49:12;93529.69;;;13.18;66.53
61408;BME280;47274;43.054;25.146;2023-03-11T08:51:38;93603.00;;;14.45;67.36
61408;BME280;47274;43.054;25.146;2023-03-11T08:54:04;93576.16;;;14.16;64.43
61408;BME280;47274;43.054;25.146;2023-03-11T08:56:30;93572.97;;;13.59;66.01
61408;BME280;47274;43.054;25.146;2023-03-11T08:58:56;93577.13;;;13.60;65.19
61408;BME280;47274;43.054;25.146;2023-03-11T09:01:22;93614.44;;;13.26;67.96
61408;BME280;47274;43.054;25.146;2023-03-11T09:03:48;93606.53;;;13.27;67.67
61408;BME280;47274;43.054;25.146;2023-03-11T09:06:15;93591.66;;;13.23;66.42
61408;BME280;47274;43.054;25.146;2023-03-11T09:08:42;93603.72;;;14.34;65.68
61408;BME280;47274;43.054;25.146;2023-03-11T09:11:08;93610.31;;;14.97;64.48
61408;BME280;47274;43.054;25.146;2023-03-11T09:13:34;93584.63;;;14.72;62.32
61408;BME280;47274;43.054;25.146;2023-03-11T09:16:00;93568.19;;;14.36;63.84
61408;BME280;47274;43.054;25.146;2023-03-11T09:18:26;93516.84;;;13.80;63.59
61408;BME280;47274;43.054;25.146;2023-03-11T09:21:02;93592.63;;;13.97;63.67
61408;BME280;47274;43.054;25.146;2023-03-11T09:23:28;93541.47;;;13.07;63.94
61408;BME280;47274;43.054;25.146;2023-03-11T09:25:54;93530.44;;;13.00;65.15
61408;BME280;47274;43.054;25.146;2023-03-11T09:28:25;93544.69;;;13.02;65.58
61408;BME280;47274;43.054;25.146;2023-03-11T09:30:51;93518.44;;;12.87;66.37
61408;BME280;47274;43.054;25.146;2023-03-11T09:33:16;93590.00;;;13.60;65.79
61408;BME280;47274;43.054;25.146;2023-03-11T09:35:42;93516.03;;;13.42;64.72
61408;BME280;47274;43.054;25.146;2023-03-11T09:38:10;93558.09;;;13.80;63.97
61408;BME280;47274;43.054;25.146;2023-03-11T09:40:58;93588.59;;;14.38;63.30
61408;BME280;47274;43.054;25.146;2023-03-11T09:43:54;93580.75;;;15.35;59.65
61408;BME280;47274;43.054;25.146;2023-03-11T09:51:55;93552.03;;;15.67;57.24
61408;BME280;47274;43.054;25.146;2023-03-11T09:54:22;93562.69;;;15.94;58.18
61408;BME280;47274;43.054;25.146;2023-03-11T09:56:48;93558.59;;;16.21;58.04
61408;BME280;47274;43.054;25.146;2023-03-11T09:59:26;93554.72;;;15.72;53.51
61408;BME280;47274;43.054;25.146;2023-03-11T10:01:55;93561.84;;;16.17;57.09
61408;BME280;47274;43.054;25.146;2023-03-11T10:04:25;93569.91;;;16.72;56.41
61408;BME280;47274;43.054;25.146;2023-03-11T10:06:52;93568.94;;;16.90;53.95
61408;BME280;47274;43.054;25.146;2023-03-11T10:09:39;93548.47;;;17.39;51.75
61408;BME280;47274;43.054;25.146;2023-03-11T10:26:21;93545.19;;;17.44;46.33
61408;BME280;47274;43.054;25.146;2023-03-11T10:28:52;93521.69;;;16.83;47.40
61408;BME280;47274;43.054;25.146;2023-03-11T10:31:23;93534.31;;;17.64;45.99
61408;BME280;47274;43.054;25.146;2023-03-11T10:33:52;93546.63;;;17.73;44.54
61408;BME280;47274;43.054;25.146;2023-03-11T10:36:57;93541.22;;;17.92;44.33
61408;BME280;47274;43.054;25.146;2023-03-11T10:39:25;93519.56;;;18.52;44.35
61408;BME280;47274;43.054;25.146;2023-03-11T10:41:54;93484.53;;;19.14;43.99
61408;BME280;47274;43.054;25.146;2023-03-11T10:44:38;93538.94;;;19.58;43.94
61408;BME280;47274;43.054;25.146;2023-03-11T10:47:05;93538.09;;;19.47;43.66
61408;BME280;47274;43.054;25.146;2023-03-11T10:49:36;93530.25;;;18.56;43.31
61408;BME280;47274;43.054;25.146;2023-03-11T10:52:05;93451.81;;;18.54;42.16
61408;BME280;47274;43.054;25.146;2023-03-11T10:54:36;93518.84;;;17.52;43.03
61408;BME280;47274;43.054;25.146;2023-03-11T10:57:28;93476.97;;;16.30;46.26
61408;BME280;47274;43.054;25.146;2023-03-11T10:59:57;93443.69;;;15.06;48.85
61408;BME280;47274;43.054;25.146;2023-03-11T11:07:41;93521.88;;;15.37;51.23
61408;BME280;47274;43.054;25.146;2023-03-11T11:12:59;93502.63;;;15.21;49.68
61408;BME280;47274;43.054;25.146;2023-03-11T11:15:33;93524.03;;;15.28;47.88
61408;BME280;47274;43.054;25.146;2023-03-11T11:18:05;93502.31;;;14.94;48.15
61408;BME280;47274;43.054;25.146;2023-03-11T11:20:35;93535.63;;;14.84;51.46
61408;BME280;47274;43.054;25.146;2023-03-11T11:23:02;93537.69;;;14.45;53.37
61408;BME280;47274;43.054;25.146;2023-03-11T11:25:37;93531.38;;;14.11;53.33
61408;BME280;47274;43.054;25.146;2023-03-11T11:28:15;93529.09;;;13.47;55.06
61408;BME280;47274;43.054;25.146;2023-03-11T11:30:52;93509.97;;;13.05;52.49
61408;BME280;47274;43.054;25.146;2023-03-11T11:33:22;93538.72;;;13.34;54.73
61408;BME280;47274;43.054;25.146;2023-03-11T11:35:51;93531.13;;;13.39;55.63
61408;BME280;47274;43.054;25.146;2023-03-11T11:38:21;93539.09;;;13.74;56.05
61408;BME280;47274;43.054;25.146;2023-03-11T11:40:49;93517.94;;;13.72;52.95
61408;BME280;47274;43.054;25.146;2023-03-11T11:44:21;93527.53;;;13.83;52.78
61408;BME280;47274;43.054;25.146;2023-03-11T11:46:36;93523.94;;;13.84;53.09
61408;BME280;47274;43.054;25.146;2023-03-11T11:49:20;93535.69;;;13.62;53.17
61408;BME280;47274;43.054;25.146;2023-03-11T11:54:42;93535.38;;;11.93;59.28
61408;BME280;47274;43.054;25.146;2023-03-11T11:57:13;93539.72;;;11.93;60.98
61408;BME280;47274;43.054;25.146;2023-03-11T11:59:39;93549.19;;;11.99;64.78
61408;BME280;47274;43.054;25.146;2023-03-11T12:10:32;93549.97;;;12.44;72.98
61408;BME280;47274;43.054;25.146;2023-03-11T12:18:28;93532.78;;;12.76;73.73
61408;BME280;47274;43.054;25.146;2023-03-11T12:20:58;93557.72;;;13.08;72.37
61408;BME280;47274;43.054;25.146;2023-03-11T12:26:19;93582.03;;;13.12;69.32
61408;BME280;47274;43.054;25.146;2023-03-11T12:28:57;93572.53;;;13.12;71.27
61408;BME280;47274;43.054;25.146;2023-03-11T12:31:26;93554.81;;;12.97;69.21
61408;BME280;47274;43.054;25.146;2023-03-11T12:34:01;93560.69;;;13.04;68.46
61408;BME280;47274;43.054;25.146;2023-03-11T12:36:34;93574.63;;;13.22;68.33
61408;BME280;47274;43.054;25.146;2023-03-11T12:39:03;93553.97;;;13.03;67.64
61408;BME280;47274;43.054;25.146;2023-03-11T12:41:35;93549.03;;;13.34;66.96
61408;BME280;47274;43.054;25.146;2023-03-11T12:44:20;93525.28;;;13.00;65.10
61408;BME280;47274;43.054;25.146;2023-03-11T12:49:27;93540.47;;;13.77;65.68
61408;BME280;47274;43.054;25.146;2023-03-11T13:05:20;93522.19;;;15.64;51.67
61408;BME280;47274;43.054;25.146;2023-03-11T13:07:50;93533.34;;;15.29;52.15
61408;BME280;47274;43.054;25.146;2023-03-11T13:12:58;93458.28;;;14.47;54.84
61408;BME280;47274;43.054;25.146;2023-03-11T13:15:36;93518.28;;;14.61;53.27
61408;BME280;47274;43.054;25.146;2023-03-11T13:25:41;93557.00;;;15.03;56.15
61408;BME280;47274;43.054;25.146;2023-03-11T13:28:33;93559.81;;;15.13;57.03
61408;BME280;47274;43.054;25.146;2023-03-11T13:31:13;93552.84;;;15.13;56.46
61408;BME280;47274;43.054;25.146;2023-03-11T13:33:53;93547.69;;;15.13;56.47
61408;BME280;47274;43.054;25.146;2023-03-11T13:41:57;93543.44;;;15.19;56.64
61408;BME280;47274;43.054;25.146;2023-03-11T13:44:30;93563.66;;;15.22;57.50
61408;BME280;47274;43.054;25.146;2023-03-11T13:47:13;93573.56;;;14.83;58.01
61408;BME280;47274;43.054;25.146;2023-03-11T13:50:02;93564.56;;;14.26;59.64
61408;BME280;47274;43.054;25.146;2023-03-11T13:52:34;93573.66;;;14.10;61.31
61408;BME280;47274;43.054;25.146;2023-03-11T13:55:12;93562.91;;;14.13;61.88
61408;BME280;47274;43.054;25.146;2023-03-11T13:57:48;93581.47;;;14.03;63.45
61408;BME280;47274;43.054;25.146;2023-03-11T14:00:16;93588.63;;;14.19;63.33
61408;BME280;47274;43.054;25.146;2023-03-11T14:02:48;93584.03;;;14.03;63.39
61408;BME280;47274;43.054;25.146;2023-03-11T14:05:34;93578.22;;;13.89;64.16
61408;BME280;47274;43.054;25.146;2023-03-11T14:08:36;93583.75;;;13.93;64.36
61408;BME280;47274;43.054;25.146;2023-03-11T14:16:14;93598.84;;;13.71;65.43
61408;BME280;47274;43.054;25.146;2023-03-11T14:18:43;93583.16;;;13.72;65.23
61408;BME280;47274;43.054;25.146;2023-03-11T14:21:20;93594.78;;;13.82;64.56
61408;BME280;47274;43.054;25.146;2023-03-11T14:23:51;93593.25;;;13.74;64.20
61408;BME280;47274;43.054;25.146;2023-03-11T14:26:19;93601.06;;;13.86;63.54
61408;BME280;47274;43.054;25.146;2023-03-11T14:28:48;93585.72;;;13.72;63.63
61408;BME280;47274;43.054;25.146;2023-03-11T14:33:59;93621.53;;;13.81;63.75
61408;BME280;47274;43.054;25.146;2023-03-11T14:36:30;93616.03;;;13.52;64.25